sensor_id;sensor_type;location;lat;lon;timestamp;P1;durP1;ratioP1;P2;durP2;ratioP2
9330;SDS011;4704;50.470;12.072;2022-10-16T00:01:41;0.40;;;0.30;;
9330;SDS011;4704;50.470;12.072;2022-10-16T00:04:11;1.23;;;0.30;;
9330;SDS011;4704;50.470;12.072;2022-10-16T00:06:39;2.08;;;0.40;;
9330;SDS011;4704;50.470;12.072;2022-10-16T00:09:06;0.52;;;0.28;;
9330;SDS011;4704;50.470;12.072;2022-10-16T00:11:35;1.00;;;0.30;;
9330;SDS011;4704;50.470;12.072;2022-10-16T00:14:06;0.30;;;0.30;;
9330;SDS011;4704;50.470;12.072;2022-10-16T00:16:34;0.70;;;0.32;;
9330;SDS011;4704;50.470;12.072;2022-10-16T00:19:02;0.25;;;0.25;;
9330;SDS011;4704;50.470;12.072;2022-10-16T00:21:32;0.82;;;0.30;;
9330;SDS011;4704;50.470;12.072;2022-10-16T00:24:00;0.52;;;0.40;;
9330;SDS011;4704;50.470;12.072;2022-10-16T00:26:29;0.90;;;0.30;;
9330;SDS011;4704;50.470;12.072;2022-10-16T00:28:58;0.20;;;0.20;;
9330;SDS011;4704;50.470;12.072;2022-10-16T00:31:26;0.30;;;0.22;;
9330;SDS011;4704;50.470;12.072;2022-10-16T00:33:54;0.30;;;0.28;;
9330;SDS011;4704;50.470;12.072;2022-10-16T00:36:22;0.30;;;0.30;;
9330;SDS011;4704;50.470;12.072;2022-10-16T00:38:51;0.68;;;0.30;;
9330;SDS011;4704;50.470;12.072;2022-10-16T00:41:20;0.30;;;0.30;;
9330;SDS011;4704;50.470;12.072;2022-10-16T00:43:49;0.30;;;0.20;;
9330;SDS011;4704;50.470;12.072;2022-10-16T00:46:18;0.25;;;0.20;;
9330;SDS011;4704;50.470;12.072;2022-10-16T00:48:48;0.40;;;0.30;;
9330;SDS011;4704;50.470;12.072;2022-10-16T00:51:16;0.30;;;0.30;;
9330;SDS011;4704;50.470;12.072;2022-10-16T00:53:45;0.20;;;0.20;;
9330;SDS011;4704;50.470;12.072;2022-10-16T00:56:15;0.20;;;0.20;;
9330;SDS011;4704;50.470;12.072;2022-10-16T00:58:43;0.40;;;0.30;;
9330;SDS011;4704;50.470;12.072;2022-10-16T01:01:11;0.30;;;0.30;;
9330;SDS011;4704;50.470;12.072;2022-10-16T01:03:39;0.30;;;0.30;;
9330;SDS011;4704;50.470;12.072;2022-10-16T01:06:21;0.28;;;0.28;;
9330;SDS011;4704;50.470;12.072;2022-10-16T01:08:55;0.47;;;0.30;;
9330;SDS011;4704;50.470;12.072;2022-10-16T01:11:27;0.30;;;0.30;;
9330;SDS011;4704;50.470;12.072;2022-10-16T01:13:59;0.20;;;0.20;;
9330;SDS011;4704;50.470;12.072;2022-10-16T01:16:30;0.63;;;0.35;;
9330;SDS011;4704;50.470;12.072;2022-10-16T01:19:02;0.47;;;0.30;;
9330;SDS011;4704;50.470;12.072;2022-10-16T01:21:35;0.35;;;0.30;;
9330;SDS011;4704;50.470;12.072;2022-10-16T01:24:08;0.20;;;0.20;;
9330;SDS011;4704;50.470;12.072;2022-10-16T01:26:48;0.30;;;0.20;;
9330;SDS011;4704;50.470;12.072;2022-10-16T01:29:20;0.35;;;0.35;;
9330;SDS011;4704;50.470;12.072;2022-10-16T01:31:50;0.20;;;0.20;;
9330;SDS011;4704;50.470;12.072;2022-10-16T01:34:22;0.20;;;0.20;;
9330;SDS011;4704;50.470;12.072;2022-10-16T01:36:52;0.30;;;0.20;;
9330;SDS011;4704;50.470;12.072;2022-10-16T01:39:21;0.30;;;0.30;;
9330;SDS011;4704;50.470;12.072;2022-10-16T01:41:51;0.30;;;0.30;;
9330;SDS011;4704;50.470;12.072;2022-10-16T01:44:24;0.25;;;0.25;;
9330;SDS011;4704;50.470;12.072;2022-10-16T01:46:53;0.20;;;0.20;;
9330;SDS011;4704;50.470;12.072;2022-10-16T01:49:21;0.25;;;0.25;;
9330;SDS011;4704;50.470;12.072;2022-10-16T01:51:51;0.30;;;0.20;;
9330;SDS011;4704;50.470;12.072;2022-10-16T01:54:20;0.43;;;0.20;;
9330;SDS011;4704;50.470;12.072;2022-10-16T01:56:48;0.52;;;0.30;;
9330;SDS011;4704;50.470;12.072;2022-10-16T01:59:18;0.20;;;0.20;;
9330;SDS011;4704;50.470;12.072;2022-10-16T02:01:49;0.65;;;0.30;;
9330;SDS011;4704;50.470;12.072;2022-10-16T02:04:19;0.30;;;0.30;;
9330;SDS011;4704;50.470;12.072;2022-10-16T02:06:49;0.20;;;0.20;;
9330;SDS011;4704;50.470;12.072;2022-10-16T02:09:16;0.30;;;0.30;;
9330;SDS011;4704;50.470;12.072;2022-10-16T02:11:45;0.22;;;0.22;;
9330;SDS011;4704;50.470;12.072;2022-10-16T02:14:14;0.30;;;0.22;;
9330;SDS011;4704;50.470;12.072;2022-10-16T02:16:42;0.77;;;0.20;;
9330;SDS011;4704;50.470;12.072;2022-10-16T02:19:13;0.20;;;0.20;;
9330;SDS011;4704;50.470;12.072;2022-10-16T02:21:42;0.20;;;0.20;;
9330;SDS011;4704;50.470;12.072;2022-10-16T02:24:13;0.20;;;0.20;;
9330;SDS011;4704;50.470;12.072;2022-10-16T02:26:44;0.35;;;0.30;;
9330;SDS011;4704;50.470;12.072;2022-10-16T02:29:14;0.30;;;0.30;;
9330;SDS011;4704;50.470;12.072;2022-10-16T02:31:44;0.25;;;0.20;;
9330;SDS011;4704;50.470;12.072;2022-10-16T02:34:14;0.25;;;0.25;;
9330;SDS011;4704;50.470;12.072;2022-10-16T02:36:43;0.30;;;0.30;;
9330;SDS011;4704;50.470;12.072;2022-10-16T02:39:12;0.30;;;0.30;;
9330;SDS011;4704;50.470;12.072;2022-10-16T02:41:40;0.20;;;0.20;;
9330;SDS011;4704;50.470;12.072;2022-10-16T02:44:08;0.30;;;0.30;;
9330;SDS011;4704;50.470;12.072;2022-10-16T02:46:36;0.30;;;0.30;;
9330;SDS011;4704;50.470;12.072;2022-10-16T02:49:04;0.30;;;0.30;;
9330;SDS011;4704;50.470;12.072;2022-10-16T02:51:33;0.25;;;0.25;;
9330;SDS011;4704;50.470;12.072;2022-10-16T02:54:01;0.20;;;0.20;;
9330;SDS011;4704;50.470;12.072;2022-10-16T02:56:29;0.52;;;0.20;;
9330;SDS011;4704;50.470;12.072;2022-10-16T02:58:57;0.20;;;0.20;;
9330;SDS011;4704;50.470;12.072;2022-10-16T03:01:25;0.40;;;0.30;;
9330;SDS011;4704;50.470;12.072;2022-10-16T03:03:52;0.25;;;0.25;;
9330;SDS011;4704;50.470;12.072;2022-10-16T03:06:20;0.30;;;0.30;;
9330;SDS011;4704;50.470;12.072;2022-10-16T03:08:50;0.25;;;0.25;;
9330;SDS011;4704;50.470;12.072;2022-10-16T03:11:18;0.30;;;0.30;;
9330;SDS011;4704;50.470;12.072;2022-10-16T03:13:45;0.20;;;0.20;;
9330;SDS011;4704;50.470;12.072;2022-10-16T03:16:13;0.30;;;0.30;;
9330;SDS011;4704;50.470;12.072;2022-10-16T03:18:41;0.30;;;0.22;;
9330;SDS011;4704;50.470;12.072;2022-10-16T03:21:09;0.30;;;0.20;;
9330;SDS011;4704;50.470;12.072;2022-10-16T03:23:36;0.32;;;0.20;;
9330;SDS011;4704;50.470;12.072;2022-10-16T03:26:06;0.35;;;0.30;;
9330;SDS011;4704;50.470;12.072;2022-10-16T03:28:33;0.30;;;0.30;;
9330;SDS011;4704;50.470;12.072;2022-10-16T03:31:01;0.20;;;0.20;;
9330;SDS011;4704;50.470;12.072;2022-10-16T03:33:29;0.20;;;0.20;;
9330;SDS011;4704;50.470;12.072;2022-10-16T03:35:57;0.28;;;0.28;;
9330;SDS011;4704;50.470;12.072;2022-10-16T03:38:25;0.20;;;0.20;;
9330;SDS011;4704;50.470;12.072;2022-10-16T03:40:54;0.20;;;0.20;;
9330;SDS011;4704;50.470;12.072;2022-10-16T03:43:23;0.30;;;0.30;;
9330;SDS011;4704;50.470;12.072;2022-10-16T03:45:51;0.30;;;0.30;;
9330;SDS011;4704;50.470;12.072;2022-10-16T03:48:19;0.20;;;0.20;;
9330;SDS011;4704;50.470;12.072;2022-10-16T03:50:47;0.22;;;0.22;;
9330;SDS011;4704;50.470;12.072;2022-10-16T03:53:15;0.20;;;0.20;;
9330;SDS011;4704;50.470;12.072;2022-10-16T03:55:43;0.20;;;0.20;;
9330;SDS011;4704;50.470;12.072;2022-10-16T03:58:11;0.68;;;0.32;;
9330;SDS011;4704;50.470;12.072;2022-10-16T04:00:41;0.43;;;0.30;;
9330;SDS011;4704;50.470;12.072;2022-10-16T04:03:10;0.30;;;0.30;;
9330;SDS011;4704;50.470;12.072;2022-10-16T04:05:37;0.20;;;0.20;;
9330;SDS011;4704;50.470;12.072;2022-10-16T04:08:05;0.47;;;0.30;;
9330;SDS011;4704;50.470;12.072;2022-10-16T04:10:33;0.30;;;0.30;;
9330;SDS011;4704;50.470;12.072;2022-10-16T04:13:00;0.20;;;0.20;;
9330;SDS011;4704;50.470;12.072;2022-10-16T04:15:28;0.30;;;0.30;;
9330;SDS011;4704;50.470;12.072;2022-10-16T04:17:56;0.30;;;0.30;;
9330;SDS011;4704;50.470;12.072;2022-10-16T04:20:24;0.30;;;0.30;;
9330;SDS011;4704;50.470;12.072;2022-10-16T04:22:51;0.30;;;0.30;;
9330;SDS011;4704;50.470;12.072;2022-10-16T04:25:19;0.30;;;0.30;;
9330;SDS011;4704;50.470;12.072;2022-10-16T04:27:47;0.28;;;0.28;;
9330;SDS011;4704;50.470;12.072;2022-10-16T04:30:14;0.20;;;0.20;;
9330;SDS011;4704;50.470;12.072;2022-10-16T04:32:41;0.20;;;0.20;;
9330;SDS011;4704;50.470;12.072;2022-10-16T04:35:10;0.30;;;0.30;;
9330;SDS011;4704;50.470;12.072;2022-10-16T04:37:38;0.28;;;0.28;;
9330;SDS011;4704;50.470;12.072;2022-10-16T04:40:05;0.32;;;0.30;;
9330;SDS011;4704;50.470;12.072;2022-10-16T04:42:33;0.43;;;0.22;;
9330;SDS011;4704;50.470;12.072;2022-10-16T04:45:00;0.28;;;0.28;;
9330;SDS011;4704;50.470;12.072;2022-10-16T04:47:28;0.32;;;0.30;;
9330;SDS011;4704;50.470;12.072;2022-10-16T04:49:55;0.20;;;0.20;;
9330;SDS011;4704;50.470;12.072;2022-10-16T04:52:25;0.40;;;0.20;;
9330;SDS011;4704;50.470;12.072;2022-10-16T04:54:53;0.20;;;0.20;;
9330;SDS011;4704;50.470;12.072;2022-10-16T04:57:21;0.20;;;0.20;;
9330;SDS011;4704;50.470;12.072;2022-10-16T04:59:49;0.25;;;0.25;;
9330;SDS011;4704;50.470;12.072;2022-10-16T05:02:16;0.20;;;0.20;;
9330;SDS011;4704;50.470;12.072;2022-10-16T05:04:43;0.30;;;0.30;;
9330;SDS011;4704;50.470;12.072;2022-10-16T05:07:11;0.30;;;0.30;;
9330;SDS011;4704;50.470;12.072;2022-10-16T05:09:40;0.20;;;0.20;;
9330;SDS011;4704;50.470;12.072;2022-10-16T05:12:07;0.30;;;0.30;;
9330;SDS011;4704;50.470;12.072;2022-10-16T05:14:35;0.20;;;0.20;;
9330;SDS011;4704;50.470;12.072;2022-10-16T05:17:02;0.30;;;0.28;;
9330;SDS011;4704;50.470;12.072;2022-10-16T05:19:30;0.30;;;0.28;;
9330;SDS011;4704;50.470;12.072;2022-10-16T05:21:57;0.30;;;0.20;;
9330;SDS011;4704;50.470;12.072;2022-10-16T05:24:25;0.20;;;0.20;;
9330;SDS011;4704;50.470;12.072;2022-10-16T05:26:53;0.20;;;0.20;;
9330;SDS011;4704;50.470;12.072;2022-10-16T05:29:21;0.20;;;0.20;;
9330;SDS011;4704;50.470;12.072;2022-10-16T05:31:49;0.40;;;0.30;;
9330;SDS011;4704;50.470;12.072;2022-10-16T05:34:18;0.20;;;0.13;;
9330;SDS011;4704;50.470;12.072;2022-10-16T05:36:45;0.20;;;0.20;;
9330;SDS011;4704;50.470;12.072;2022-10-16T05:39:14;0.55;;;0.20;;
9330;SDS011;4704;50.470;12.072;2022-10-16T05:41:41;0.25;;;0.25;;
9330;SDS011;4704;50.470;12.072;2022-10-16T05:44:10;0.20;;;0.20;;
9330;SDS011;4704;50.470;12.072;2022-10-16T05:46:38;0.20;;;0.20;;
9330;SDS011;4704;50.470;12.072;2022-10-16T05:49:05;0.20;;;0.20;;
9330;SDS011;4704;50.470;12.072;2022-10-16T05:51:33;1.00;;;0.30;;
9330;SDS011;4704;50.470;12.072;2022-10-16T05:54:00;0.30;;;0.20;;
9330;SDS011;4704;50.470;12.072;2022-10-16T05:56:28;0.20;;;0.20;;
9330;SDS011;4704;50.470;12.072;2022-10-16T05:58:55;0.32;;;0.28;;
9330;SDS011;4704;50.470;12.072;2022-10-16T06:01:24;0.40;;;0.30;;
9330;SDS011;4704;50.470;12.072;2022-10-16T06:03:52;0.20;;;0.20;;
9330;SDS011;4704;50.470;12.072;2022-10-16T06:06:20;0.20;;;0.20;;
9330;SDS011;4704;50.470;12.072;2022-10-16T06:08:48;0.30;;;0.30;;
9330;SDS011;4704;50.470;12.072;2022-10-16T06:11:17;0.20;;;0.20;;
9330;SDS011;4704;50.470;12.072;2022-10-16T06:13:44;0.20;;;0.20;;
9330;SDS011;4704;50.470;12.072;2022-10-16T06:16:13;0.20;;;0.20;;
9330;SDS011;4704;50.470;12.072;2022-10-16T06:18:41;0.22;;;0.22;;
9330;SDS011;4704;50.470;12.072;2022-10-16T06:21:09;0.22;;;0.22;;
9330;SDS011;4704;50.470;12.072;2022-10-16T06:23:37;0.30;;;0.22;;
9330;SDS011;4704;50.470;12.072;2022-10-16T06:26:05;0.20;;;0.20;;
9330;SDS011;4704;50.470;12.072;2022-10-16T06:28:33;0.30;;;0.25;;
9330;SDS011;4704;50.470;12.072;2022-10-16T06:31:01;1.45;;;0.30;;
9330;SDS011;4704;50.470;12.072;2022-10-16T06:33:29;0.30;;;0.20;;
9330;SDS011;4704;50.470;12.072;2022-10-16T06:36:01;0.20;;;0.20;;
9330;SDS011;4704;50.470;12.072;2022-10-16T06:38:29;0.20;;;0.20;;
9330;SDS011;4704;50.470;12.072;2022-10-16T06:40:56;0.30;;;0.30;;
9330;SDS011;4704;50.470;12.072;2022-10-16T06:43:24;0.30;;;0.30;;
9330;SDS011;4704;50.470;12.072;2022-10-16T06:45:53;0.20;;;0.20;;
9330;SDS011;4704;50.470;12.072;2022-10-16T06:48:21;0.20;;;0.20;;
9330;SDS011;4704;50.470;12.072;2022-10-16T06:50:56;0.20;;;0.20;;
9330;SDS011;4704;50.470;12.072;2022-10-16T06:53:25;0.20;;;0.15;;
9330;SDS011;4704;50.470;12.072;2022-10-16T06:55:53;0.32;;;0.30;;
9330;SDS011;4704;50.470;12.072;2022-10-16T06:58:21;0.20;;;0.20;;
9330;SDS011;4704;50.470;12.072;2022-10-16T07:00:54;0.25;;;0.20;;
9330;SDS011;4704;50.470;12.072;2022-10-16T07:03:22;0.15;;;0.15;;
9330;SDS011;4704;50.470;12.072;2022-10-16T07:05:49;0.20;;;0.13;;
9330;SDS011;4704;50.470;12.072;2022-10-16T07:08:17;0.88;;;0.20;;
9330;SDS011;4704;50.470;12.072;2022-10-16T07:10:46;0.20;;;0.20;;
9330;SDS011;4704;50.470;12.072;2022-10-16T07:13:13;0.20;;;0.20;;
9330;SDS011;4704;50.470;12.072;2022-10-16T07:15:41;0.20;;;0.20;;
9330;SDS011;4704;50.470;12.072;2022-10-16T07:18:08;0.20;;;0.20;;
9330;SDS011;4704;50.470;12.072;2022-10-16T07:20:36;0.10;;;0.10;;
9330;SDS011;4704;50.470;12.072;2022-10-16T07:23:03;0.20;;;0.20;;
9330;SDS011;4704;50.470;12.072;2022-10-16T07:25:31;0.28;;;0.28;;
9330;SDS011;4704;50.470;12.072;2022-10-16T07:28:00;0.20;;;0.20;;
9330;SDS011;4704;50.470;12.072;2022-10-16T07:30:27;0.30;;;0.28;;
9330;SDS011;4704;50.470;12.072;2022-10-16T07:32:54;0.10;;;0.10;;
9330;SDS011;4704;50.470;12.072;2022-10-16T07:35:22;0.20;;;0.20;;
9330;SDS011;4704;50.470;12.072;2022-10-16T07:37:50;0.30;;;0.30;;
9330;SDS011;4704;50.470;12.072;2022-10-16T07:40:17;0.75;;;0.30;;
9330;SDS011;4704;50.470;12.072;2022-10-16T07:42:44;0.25;;;0.22;;
9330;SDS011;4704;50.470;12.072;2022-10-16T07:45:13;0.20;;;0.20;;
9330;SDS011;4704;50.470;12.072;2022-10-16T07:47:41;0.30;;;0.30;;
9330;SDS011;4704;50.470;12.072;2022-10-16T07:50:08;0.20;;;0.20;;
9330;SDS011;4704;50.470;12.072;2022-10-16T07:52:36;0.20;;;0.20;;
9330;SDS011;4704;50.470;12.072;2022-10-16T07:55:04;0.20;;;0.20;;
9330;SDS011;4704;50.470;12.072;2022-10-16T07:57:31;0.22;;;0.20;;
9330;SDS011;4704;50.470;12.072;2022-10-16T07:59:59;0.30;;;0.30;;
9330;SDS011;4704;50.470;12.072;2022-10-16T08:02:28;0.88;;;0.20;;
9330;SDS011;4704;50.470;12.072;2022-10-16T08:04:55;0.30;;;0.22;;
9330;SDS011;4704;50.470;12.072;2022-10-16T08:07:22;0.20;;;0.20;;
9330;SDS011;4704;50.470;12.072;2022-10-16T08:09:50;0.30;;;0.30;;
9330;SDS011;4704;50.470;12.072;2022-10-16T08:12:18;0.30;;;0.30;;
9330;SDS011;4704;50.470;12.072;2022-10-16T08:14:45;0.52;;;0.35;;
9330;SDS011;4704;50.470;12.072;2022-10-16T08:17:13;0.25;;;0.25;;
9330;SDS011;4704;50.470;12.072;2022-10-16T08:19:45;0.45;;;0.20;;
9330;SDS011;4704;50.470;12.072;2022-10-16T08:22:12;0.95;;;0.20;;
9330;SDS011;4704;50.470;12.072;2022-10-16T08:24:40;0.30;;;0.30;;
9330;SDS011;4704;50.470;12.072;2022-10-16T08:27:08;0.28;;;0.25;;
9330;SDS011;4704;50.470;12.072;2022-10-16T08:29:35;0.52;;;0.30;;
9330;SDS011;4704;50.470;12.072;2022-10-16T08:32:03;0.50;;;0.17;;
9330;SDS011;4704;50.470;12.072;2022-10-16T08:34:31;0.55;;;0.25;;
9330;SDS011;4704;50.470;12.072;2022-10-16T08:37:00;0.40;;;0.40;;
9330;SDS011;4704;50.470;12.072;2022-10-16T08:39:27;0.50;;;0.20;;
9330;SDS011;4704;50.470;12.072;2022-10-16T08:42:07;0.22;;;0.22;;
9330;SDS011;4704;50.470;12.072;2022-10-16T08:44:51;0.30;;;0.30;;
9330;SDS011;4704;50.470;12.072;2022-10-16T08:47:24;0.57;;;0.43;;
9330;SDS011;4704;50.470;12.072;2022-10-16T08:49:55;0.32;;;0.30;;
9330;SDS011;4704;50.470;12.072;2022-10-16T08:52:28;0.20;;;0.20;;
9330;SDS011;4704;50.470;12.072;2022-10-16T08:54:57;0.28;;;0.28;;
9330;SDS011;4704;50.470;12.072;2022-10-16T08:57:25;0.28;;;0.28;;
9330;SDS011;4704;50.470;12.072;2022-10-16T08:59:53;0.40;;;0.30;;
9330;SDS011;4704;50.470;12.072;2022-10-16T09:02:26;0.38;;;0.38;;
9330;SDS011;4704;50.470;12.072;2022-10-16T09:04:58;0.57;;;0.35;;
9330;SDS011;4704;50.470;12.072;2022-10-16T09:07:32;0.80;;;0.40;;
9330;SDS011;4704;50.470;12.072;2022-10-16T09:10:11;0.32;;;0.32;;
9330;SDS011;4704;50.470;12.072;2022-10-16T09:12:43;0.40;;;0.40;;
9330;SDS011;4704;50.470;12.072;2022-10-16T09:15:15;1.30;;;0.35;;
9330;SDS011;4704;50.470;12.072;2022-10-16T09:17:46;0.80;;;0.40;;
9330;SDS011;4704;50.470;12.072;2022-10-16T09:20:18;0.55;;;0.38;;
9330;SDS011;4704;50.470;12.072;2022-10-16T09:22:48;0.40;;;0.40;;
9330;SDS011;4704;50.470;12.072;2022-10-16T09:25:17;0.85;;;0.20;;
9330;SDS011;4704;50.470;12.072;2022-10-16T09:27:48;0.82;;;0.30;;
9330;SDS011;4704;50.470;12.072;2022-10-16T09:30:16;1.15;;;0.38;;
9330;SDS011;4704;50.470;12.072;2022-10-16T09:32:44;0.60;;;0.45;;
9330;SDS011;4704;50.470;12.072;2022-10-16T09:35:13;0.30;;;0.30;;
9330;SDS011;4704;50.470;12.072;2022-10-16T09:37:42;0.60;;;0.50;;
9330;SDS011;4704;50.470;12.072;2022-10-16T09:40:13;0.43;;;0.43;;
9330;SDS011;4704;50.470;12.072;2022-10-16T09:42:50;0.63;;;0.40;;
9330;SDS011;4704;50.470;12.072;2022-10-16T09:45:20;0.30;;;0.30;;
9330;SDS011;4704;50.470;12.072;2022-10-16T09:47:48;0.40;;;0.30;;
9330;SDS011;4704;50.470;12.072;2022-10-16T09:50:20;0.93;;;0.50;;
9330;SDS011;4704;50.470;12.072;2022-10-16T09:52:49;1.15;;;0.50;;
9330;SDS011;4704;50.470;12.072;2022-10-16T09:55:18;0.55;;;0.40;;
9330;SDS011;4704;50.470;12.072;2022-10-16T09:57:49;1.38;;;0.43;;
9330;SDS011;4704;50.470;12.072;2022-10-16T10:00:16;1.05;;;0.40;;
9330;SDS011;4704;50.470;12.072;2022-10-16T10:02:44;0.50;;;0.30;;
9330;SDS011;4704;50.470;12.072;2022-10-16T10:05:18;1.05;;;0.32;;
9330;SDS011;4704;50.470;12.072;2022-10-16T10:07:52;0.52;;;0.50;;
9330;SDS011;4704;50.470;12.072;2022-10-16T10:10:22;0.60;;;0.40;;
9330;SDS011;4704;50.470;12.072;2022-10-16T10:12:50;0.60;;;0.60;;
9330;SDS011;4704;50.470;12.072;2022-10-16T10:15:18;0.40;;;0.40;;
9330;SDS011;4704;50.470;12.072;2022-10-16T10:17:47;1.00;;;0.50;;
9330;SDS011;4704;50.470;12.072;2022-10-16T10:20:21;0.30;;;0.30;;
9330;SDS011;4704;50.470;12.072;2022-10-16T10:22:49;0.32;;;0.32;;
9330;SDS011;4704;50.470;12.072;2022-10-16T10:25:19;1.40;;;0.50;;
9330;SDS011;4704;50.470;12.072;2022-10-16T10:27:56;0.95;;;0.40;;
9330;SDS011;4704;50.470;12.072;2022-10-16T10:30:26;0.47;;;0.40;;
9330;SDS011;4704;50.470;12.072;2022-10-16T10:32:58;0.88;;;0.55;;
9330;SDS011;4704;50.470;12.072;2022-10-16T10:35:30;0.32;;;0.30;;
9330;SDS011;4704;50.470;12.072;2022-10-16T10:38:01;0.95;;;0.50;;
9330;SDS011;4704;50.470;12.072;2022-10-16T10:40:36;0.40;;;0.40;;
9330;SDS011;4704;50.470;12.072;2022-10-16T10:43:06;0.47;;;0.47;;
9330;SDS011;4704;50.470;12.072;2022-10-16T10:45:38;2.10;;;0.60;;
9330;SDS011;4704;50.470;12.072;2022-10-16T10:48:18;0.73;;;0.68;;
9330;SDS011;4704;50.470;12.072;2022-10-16T10:50:48;0.90;;;0.70;;
9330;SDS011;4704;50.470;12.072;2022-10-16T10:53:18;2.13;;;1.00;;
9330;SDS011;4704;50.470;12.072;2022-10-16T10:55:51;1.60;;;1.00;;
9330;SDS011;4704;50.470;12.072;2022-10-16T10:58:45;2.15;;;0.98;;
9330;SDS011;4704;50.470;12.072;2022-10-16T11:01:15;1.10;;;1.00;;
9330;SDS011;4704;50.470;12.072;2022-10-16T11:06:30;1.83;;;1.20;;
9330;SDS011;4704;50.470;12.072;2022-10-16T11:09:00;1.35;;;0.90;;
9330;SDS011;4704;50.470;12.072;2022-10-16T11:11:30;1.25;;;1.10;;
9330;SDS011;4704;50.470;12.072;2022-10-16T11:14:02;2.72;;;1.33;;
9330;SDS011;4704;50.470;12.072;2022-10-16T11:16:31;2.75;;;1.10;;
9330;SDS011;4704;50.470;12.072;2022-10-16T11:19:02;2.72;;;1.40;;
9330;SDS011;4704;50.470;12.072;2022-10-16T11:21:34;4.38;;;1.20;;
9330;SDS011;4704;50.470;12.072;2022-10-16T11:24:04;2.42;;;1.38;;
9330;SDS011;4704;50.470;12.072;2022-10-16T11:26:38;2.67;;;1.20;;
9330;SDS011;4704;50.470;12.072;2022-10-16T11:29:10;2.63;;;1.35;;
9330;SDS011;4704;50.470;12.072;2022-10-16T11:31:40;2.80;;;1.42;;
9330;SDS011;4704;50.470;12.072;2022-10-16T11:34:09;2.97;;;1.40;;
9330;SDS011;4704;50.470;12.072;2022-10-16T11:36:42;4.03;;;1.30;;
9330;SDS011;4704;50.470;12.072;2022-10-16T11:39:13;2.38;;;1.33;;
9330;SDS011;4704;50.470;12.072;2022-10-16T11:41:47;1.70;;;1.10;;
9330;SDS011;4704;50.470;12.072;2022-10-16T11:44:22;2.28;;;1.35;;
9330;SDS011;4704;50.470;12.072;2022-10-16T11:46:56;1.60;;;1.30;;
9330;SDS011;4704;50.470;12.072;2022-10-16T11:49:25;2.17;;;1.10;;
9330;SDS011;4704;50.470;12.072;2022-10-16T11:51:55;1.60;;;1.08;;
9330;SDS011;4704;50.470;12.072;2022-10-16T11:54:24;1.80;;;1.23;;
9330;SDS011;4704;50.470;12.072;2022-10-16T11:56:54;1.92;;;0.98;;
9330;SDS011;4704;50.470;12.072;2022-10-16T11:59:27;2.25;;;1.40;;
9330;SDS011;4704;50.470;12.072;2022-10-16T12:01:58;1.23;;;1.05;;
9330;SDS011;4704;50.470;12.072;2022-10-16T12:04:32;2.10;;;1.38;;
9330;SDS011;4704;50.470;12.072;2022-10-16T12:07:02;2.05;;;1.17;;
9330;SDS011;4704;50.470;12.072;2022-10-16T12:09:32;3.28;;;1.30;;
9330;SDS011;4704;50.470;12.072;2022-10-16T12:12:01;1.52;;;0.90;;
9330;SDS011;4704;50.470;12.072;2022-10-16T12:14:37;1.48;;;1.02;;
9330;SDS011;4704;50.470;12.072;2022-10-16T12:19:56;1.90;;;1.23;;
9330;SDS011;4704;50.470;12.072;2022-10-16T12:22:24;1.33;;;1.20;;
9330;SDS011;4704;50.470;12.072;2022-10-16T12:24:53;1.40;;;1.00;;
9330;SDS011;4704;50.470;12.072;2022-10-16T12:27:22;1.80;;;1.08;;
9330;SDS011;4704;50.470;12.072;2022-10-16T12:29:55;1.77;;;1.23;;
9330;SDS011;4704;50.470;12.072;2022-10-16T12:32:25;1.75;;;1.05;;
9330;SDS011;4704;50.470;12.072;2022-10-16T12:34:54;1.25;;;0.93;;
9330;SDS011;4704;50.470;12.072;2022-10-16T12:37:22;2.17;;;1.30;;
9330;SDS011;4704;50.470;12.072;2022-10-16T12:39:50;2.15;;;1.10;;
9330;SDS011;4704;50.470;12.072;2022-10-16T12:45:21;1.58;;;1.05;;
9330;SDS011;4704;50.470;12.072;2022-10-16T12:47:51;1.23;;;1.13;;
9330;SDS011;4704;50.470;12.072;2022-10-16T12:50:30;1.67;;;0.95;;
9330;SDS011;4704;50.470;12.072;2022-10-16T12:52:58;1.23;;;1.10;;
9330;SDS011;4704;50.470;12.072;2022-10-16T12:55:25;1.67;;;0.98;;
9330;SDS011;4704;50.470;12.072;2022-10-16T13:00:39;2.83;;;1.13;;
9330;SDS011;4704;50.470;12.072;2022-10-16T13:05:59;1.30;;;1.00;;
9330;SDS011;4704;50.470;12.072;2022-10-16T13:08:38;1.20;;;1.00;;
9330;SDS011;4704;50.470;12.072;2022-10-16T13:11:09;1.63;;;0.80;;
9330;SDS011;4704;50.470;12.072;2022-10-16T13:16:26;1.52;;;0.88;;
9330;SDS011;4704;50.470;12.072;2022-10-16T13:18:59;1.58;;;0.93;;
9330;SDS011;4704;50.470;12.072;2022-10-16T13:21:35;1.17;;;0.90;;
9330;SDS011;4704;50.470;12.072;2022-10-16T13:24:09;1.40;;;1.02;;
9330;SDS011;4704;50.470;12.072;2022-10-16T13:26:40;1.60;;;0.85;;
9330;SDS011;4704;50.470;12.072;2022-10-16T13:29:09;1.35;;;0.80;;
9330;SDS011;4704;50.470;12.072;2022-10-16T13:31:38;2.55;;;1.00;;
9330;SDS011;4704;50.470;12.072;2022-10-16T13:34:06;1.92;;;1.00;;
9330;SDS011;4704;50.470;12.072;2022-10-16T13:36:42;1.55;;;0.80;;
9330;SDS011;4704;50.470;12.072;2022-10-16T13:39:12;1.25;;;0.82;;
9330;SDS011;4704;50.470;12.072;2022-10-16T13:41:40;1.40;;;0.80;;
9330;SDS011;4704;50.470;12.072;2022-10-16T13:44:11;1.33;;;0.80;;
9330;SDS011;4704;50.470;12.072;2022-10-16T13:46:41;2.03;;;1.20;;
9330;SDS011;4704;50.470;12.072;2022-10-16T13:49:12;1.55;;;0.93;;
9330;SDS011;4704;50.470;12.072;2022-10-16T13:51:40;2.38;;;0.90;;
9330;SDS011;4704;50.470;12.072;2022-10-16T13:54:09;0.80;;;0.80;;
9330;SDS011;4704;50.470;12.072;2022-10-16T13:56:39;1.38;;;0.95;;
9330;SDS011;4704;50.470;12.072;2022-10-16T13:59:21;1.55;;;0.90;;
9330;SDS011;4704;50.470;12.072;2022-10-16T14:01:51;1.05;;;0.95;;
9330;SDS011;4704;50.470;12.072;2022-10-16T14:04:19;1.10;;;0.93;;
9330;SDS011;4704;50.470;12.072;2022-10-16T14:06:49;1.15;;;0.82;;
9330;SDS011;4704;50.470;12.072;2022-10-16T14:09:19;1.92;;;1.00;;
9330;SDS011;4704;50.470;12.072;2022-10-16T14:11:48;1.52;;;1.10;;
9330;SDS011;4704;50.470;12.072;2022-10-16T14:14:17;2.40;;;1.00;;
9330;SDS011;4704;50.470;12.072;2022-10-16T14:16:45;2.13;;;1.08;;
9330;SDS011;4704;50.470;12.072;2022-10-16T14:19:15;1.35;;;1.10;;
9330;SDS011;4704;50.470;12.072;2022-10-16T14:21:44;1.30;;;1.10;;
9330;SDS011;4704;50.470;12.072;2022-10-16T14:24:12;1.95;;;1.05;;
9330;SDS011;4704;50.470;12.072;2022-10-16T14:26:42;1.20;;;1.10;;
9330;SDS011;4704;50.470;12.072;2022-10-16T14:29:11;2.10;;;1.10;;
9330;SDS011;4704;50.470;12.072;2022-10-16T14:31:39;1.85;;;1.35;;
9330;SDS011;4704;50.470;12.072;2022-10-16T14:36:54;2.05;;;1.10;;
9330;SDS011;4704;50.470;12.072;2022-10-16T14:39:21;2.53;;;1.25;;
9330;SDS011;4704;50.470;12.072;2022-10-16T14:41:50;2.28;;;1.13;;
9330;SDS011;4704;50.470;12.072;2022-10-16T14:44:17;3.30;;;1.17;;
9330;SDS011;4704;50.470;12.072;2022-10-16T14:46:46;2.90;;;1.15;;
9330;SDS011;4704;50.470;12.072;2022-10-16T14:49:15;1.00;;;0.90;;
9330;SDS011;4704;50.470;12.072;2022-10-16T14:51:44;2.42;;;1.40;;
9330;SDS011;4704;50.470;12.072;2022-10-16T14:54:15;1.73;;;1.10;;
9330;SDS011;4704;50.470;12.072;2022-10-16T14:56:47;2.58;;;1.10;;
9330;SDS011;4704;50.470;12.072;2022-10-16T14:59:16;1.58;;;0.82;;
9330;SDS011;4704;50.470;12.072;2022-10-16T15:01:44;1.23;;;1.13;;
9330;SDS011;4704;50.470;12.072;2022-10-16T15:04:12;1.50;;;1.05;;
9330;SDS011;4704;50.470;12.072;2022-10-16T15:06:40;1.98;;;1.00;;
9330;SDS011;4704;50.470;12.072;2022-10-16T15:09:08;1.85;;;1.15;;
9330;SDS011;4704;50.470;12.072;2022-10-16T15:11:37;2.08;;;1.05;;
9330;SDS011;4704;50.470;12.072;2022-10-16T15:14:05;1.80;;;0.90;;
9330;SDS011;4704;50.470;12.072;2022-10-16T15:16:32;2.00;;;1.00;;
9330;SDS011;4704;50.470;12.072;2022-10-16T15:19:00;3.40;;;1.20;;
9330;SDS011;4704;50.470;12.072;2022-10-16T15:21:29;1.73;;;1.17;;
9330;SDS011;4704;50.470;12.072;2022-10-16T15:23:57;1.83;;;1.10;;
9330;SDS011;4704;50.470;12.072;2022-10-16T15:26:25;2.17;;;1.40;;
9330;SDS011;4704;50.470;12.072;2022-10-16T15:28:54;2.90;;;1.20;;
9330;SDS011;4704;50.470;12.072;2022-10-16T15:31:22;1.27;;;1.00;;
9330;SDS011;4704;50.470;12.072;2022-10-16T15:33:50;1.30;;;1.20;;